sensor_id;sensor_type;location;lat;lon;timestamp;P1;durP1;ratioP1;P2;durP2;ratioP2
68870;SDS011;55906;52.278;6.808;2022-09-04T00:00:36;4.15;;;3.08;;
68870;SDS011;55906;52.278;6.808;2022-09-04T00:03:13;3.90;;;2.88;;
68870;SDS011;55906;52.278;6.808;2022-09-04T00:05:53;3.63;;;2.90;;
68870;SDS011;55906;52.278;6.808;2022-09-04T00:08:35;7.33;;;3.53;;
68870;SDS011;55906;52.278;6.808;2022-09-04T00:11:27;3.63;;;2.75;;
68870;SDS011;55906;52.278;6.808;2022-09-04T00:14:09;4.30;;;3.10;;
68870;SDS011;55906;52.278;6.808;2022-09-04T00:16:41;5.00;;;3.13;;
68870;SDS011;55906;52.278;6.808;2022-09-04T00:19:13;4.47;;;3.63;;
68870;SDS011;55906;52.278;6.808;2022-09-04T00:21:47;5.07;;;3.23;;
68870;SDS011;55906;52.278;6.808;2022-09-04T00:24:21;4.28;;;3.30;;
68870;SDS011;55906;52.278;6.808;2022-09-04T00:26:51;4.57;;;3.15;;
68870;SDS011;55906;52.278;6.808;2022-09-04T00:29:26;4.20;;;3.17;;
68870;SDS011;55906;52.278;6.808;2022-09-04T00:32:03;4.47;;;3.63;;
68870;SDS011;55906;52.278;6.808;2022-09-04T00:34:55;4.30;;;3.70;;
68870;SDS011;55906;52.278;6.808;2022-09-04T00:37:30;4.28;;;3.00;;
68870;SDS011;55906;52.278;6.808;2022-09-04T00:40:02;4.72;;;3.72;;
68870;SDS011;55906;52.278;6.808;2022-09-04T00:42:39;4.93;;;3.10;;
68870;SDS011;55906;52.278;6.808;2022-09-04T00:48:15;4.70;;;3.47;;
68870;SDS011;55906;52.278;6.808;2022-09-04T00:53:54;4.63;;;3.17;;
68870;SDS011;55906;52.278;6.808;2022-09-04T00:59:48;4.32;;;3.42;;
68870;SDS011;55906;52.278;6.808;2022-09-04T01:02:31;4.40;;;3.30;;
68870;SDS011;55906;52.278;6.808;2022-09-04T01:05:11;5.50;;;3.72;;
68870;SDS011;55906;52.278;6.808;2022-09-04T01:07:48;5.07;;;3.67;;
68870;SDS011;55906;52.278;6.808;2022-09-04T01:13:14;4.60;;;3.40;;
68870;SDS011;55906;52.278;6.808;2022-09-04T01:15:49;4.57;;;3.80;;
68870;SDS011;55906;52.278;6.808;2022-09-04T01:18:25;4.47;;;2.85;;
68870;SDS011;55906;52.278;6.808;2022-09-04T01:24:06;4.35;;;3.50;;
68870;SDS011;55906;52.278;6.808;2022-09-04T01:27:00;4.35;;;3.33;;
68870;SDS011;55906;52.278;6.808;2022-09-04T01:29:35;4.60;;;3.63;;
68870;SDS011;55906;52.278;6.808;2022-09-04T01:32:08;4.53;;;3.33;;
68870;SDS011;55906;52.278;6.808;2022-09-04T01:34:44;4.30;;;3.35;;
68870;SDS011;55906;52.278;6.808;2022-09-04T01:37:34;4.40;;;3.70;;
68870;SDS011;55906;52.278;6.808;2022-09-04T01:40:15;4.72;;;3.50;;
68870;SDS011;55906;52.278;6.808;2022-09-04T01:42:56;5.50;;;4.20;;
68870;SDS011;55906;52.278;6.808;2022-09-04T01:45:30;5.40;;;3.30;;
68870;SDS011;55906;52.278;6.808;2022-09-04T01:48:08;4.93;;;3.58;;
68870;SDS011;55906;52.278;6.808;2022-09-04T01:50:42;4.40;;;3.67;;
68870;SDS011;55906;52.278;6.808;2022-09-04T01:53:13;4.80;;;3.10;;
68870;SDS011;55906;52.278;6.808;2022-09-04T01:55:46;5.03;;;3.90;;
68870;SDS011;55906;52.278;6.808;2022-09-04T01:58:25;4.78;;;3.58;;
68870;SDS011;55906;52.278;6.808;2022-09-04T02:01:03;4.40;;;3.67;;
68870;SDS011;55906;52.278;6.808;2022-09-04T02:03:38;5.13;;;3.45;;
68870;SDS011;55906;52.278;6.808;2022-09-04T02:06:12;4.72;;;3.60;;
68870;SDS011;55906;52.278;6.808;2022-09-04T02:08:53;4.40;;;3.40;;
68870;SDS011;55906;52.278;6.808;2022-09-04T02:11:32;4.53;;;3.42;;
68870;SDS011;55906;52.278;6.808;2022-09-04T02:14:12;5.68;;;3.70;;
68870;SDS011;55906;52.278;6.808;2022-09-04T02:16:45;4.65;;;3.42;;
68870;SDS011;55906;52.278;6.808;2022-09-04T02:19:31;4.25;;;3.20;;
68870;SDS011;55906;52.278;6.808;2022-09-04T02:22:06;6.57;;;3.70;;
68870;SDS011;55906;52.278;6.808;2022-09-04T02:24:40;6.32;;;3.80;;
68870;SDS011;55906;52.278;6.808;2022-09-04T02:27:14;4.82;;;4.03;;
68870;SDS011;55906;52.278;6.808;2022-09-04T02:29:50;4.78;;;3.97;;
68870;SDS011;55906;52.278;6.808;2022-09-04T02:32:23;4.80;;;3.70;;
68870;SDS011;55906;52.278;6.808;2022-09-04T02:34:54;4.30;;;3.50;;
68870;SDS011;55906;52.278;6.808;2022-09-04T02:37:30;4.60;;;3.60;;
68870;SDS011;55906;52.278;6.808;2022-09-04T02:40:05;4.65;;;3.53;;
68870;SDS011;55906;52.278;6.808;2022-09-04T02:42:42;5.25;;;3.60;;
68870;SDS011;55906;52.278;6.808;2022-09-04T02:45:19;4.47;;;3.70;;
68870;SDS011;55906;52.278;6.808;2022-09-04T02:48:02;4.33;;;3.53;;
68870;SDS011;55906;52.278;6.808;2022-09-04T02:50:42;4.80;;;3.72;;
68870;SDS011;55906;52.278;6.808;2022-09-04T02:53:23;4.10;;;3.28;;
68870;SDS011;55906;52.278;6.808;2022-09-04T02:56:00;4.80;;;3.80;;
68870;SDS011;55906;52.278;6.808;2022-09-04T02:58:38;4.40;;;3.65;;
68870;SDS011;55906;52.278;6.808;2022-09-04T03:01:17;4.33;;;3.47;;
68870;SDS011;55906;52.278;6.808;2022-09-04T03:03:51;4.60;;;3.58;;
68870;SDS011;55906;52.278;6.808;2022-09-04T03:06:24;4.18;;;3.28;;
68870;SDS011;55906;52.278;6.808;2022-09-04T03:09:06;4.93;;;3.17;;
68870;SDS011;55906;52.278;6.808;2022-09-04T03:11:39;4.35;;;3.30;;
68870;SDS011;55906;52.278;6.808;2022-09-04T03:14:11;4.07;;;3.40;;
68870;SDS011;55906;52.278;6.808;2022-09-04T03:16:47;4.32;;;3.50;;
68870;SDS011;55906;52.278;6.808;2022-09-04T03:19:20;5.65;;;3.58;;
68870;SDS011;55906;52.278;6.808;2022-09-04T03:21:54;4.00;;;3.40;;
68870;SDS011;55906;52.278;6.808;2022-09-04T03:24:30;4.32;;;3.40;;
68870;SDS011;55906;52.278;6.808;2022-09-04T03:27:00;4.63;;;3.33;;
68870;SDS011;55906;52.278;6.808;2022-09-04T03:29:29;3.92;;;3.10;;
68870;SDS011;55906;52.278;6.808;2022-09-04T03:32:06;4.90;;;3.90;;
68870;SDS011;55906;52.278;6.808;2022-09-04T03:34:42;4.75;;;3.45;;
68870;SDS011;55906;52.278;6.808;2022-09-04T03:37:26;5.35;;;3.50;;
68870;SDS011;55906;52.278;6.808;2022-09-04T03:40:06;4.77;;;4.20;;
68870;SDS011;55906;52.278;6.808;2022-09-04T03:43:00;4.88;;;3.85;;
68870;SDS011;55906;52.278;6.808;2022-09-04T03:45:44;5.63;;;4.18;;
68870;SDS011;55906;52.278;6.808;2022-09-04T03:48:24;4.35;;;3.85;;
68870;SDS011;55906;52.278;6.808;2022-09-04T03:51:00;5.18;;;3.53;;
68870;SDS011;55906;52.278;6.808;2022-09-04T03:53:39;6.10;;;3.70;;
68870;SDS011;55906;52.278;6.808;2022-09-04T03:56:13;4.72;;;4.18;;
68870;SDS011;55906;52.278;6.808;2022-09-04T03:58:53;4.53;;;3.80;;
68870;SDS011;55906;52.278;6.808;2022-09-04T04:01:28;4.97;;;4.45;;
68870;SDS011;55906;52.278;6.808;2022-09-04T04:04:30;4.90;;;3.90;;
68870;SDS011;55906;52.278;6.808;2022-09-04T04:07:10;5.93;;;4.23;;
68870;SDS011;55906;52.278;6.808;2022-09-04T04:09:50;5.00;;;4.03;;
68870;SDS011;55906;52.278;6.808;2022-09-04T04:15:19;5.53;;;3.78;;
68870;SDS011;55906;52.278;6.808;2022-09-04T04:21:06;4.30;;;3.60;;
68870;SDS011;55906;52.278;6.808;2022-09-04T04:23:54;5.07;;;4.38;;
68870;SDS011;55906;52.278;6.808;2022-09-04T04:26:41;5.07;;;4.20;;
68870;SDS011;55906;52.278;6.808;2022-09-04T04:29:39;5.10;;;4.60;;
68870;SDS011;55906;52.278;6.808;2022-09-04T04:32:43;4.68;;;3.90;;
68870;SDS011;55906;52.278;6.808;2022-09-04T04:35:25;4.67;;;3.80;;
68870;SDS011;55906;52.278;6.808;2022-09-04T04:38:02;4.90;;;3.80;;
68870;SDS011;55906;52.278;6.808;2022-09-04T04:40:58;4.90;;;4.18;;
68870;SDS011;55906;52.278;6.808;2022-09-04T04:43:36;4.55;;;3.85;;
68870;SDS011;55906;52.278;6.808;2022-09-04T04:46:15;5.28;;;3.75;;
68870;SDS011;55906;52.278;6.808;2022-09-04T04:51:58;4.88;;;4.22;;
68870;SDS011;55906;52.278;6.808;2022-09-04T04:54:49;4.82;;;4.28;;
68870;SDS011;55906;52.278;6.808;2022-09-04T04:57:26;4.60;;;3.60;;
68870;SDS011;55906;52.278;6.808;2022-09-04T05:00:03;5.15;;;4.32;;
68870;SDS011;55906;52.278;6.808;2022-09-04T05:02:34;4.47;;;3.63;;
68870;SDS011;55906;52.278;6.808;2022-09-04T05:05:08;4.72;;;4.00;;
68870;SDS011;55906;52.278;6.808;2022-09-04T05:07:41;5.25;;;3.80;;
68870;SDS011;55906;52.278;6.808;2022-09-04T05:10:18;5.43;;;3.92;;
68870;SDS011;55906;52.278;6.808;2022-09-04T05:12:58;4.60;;;3.50;;
68870;SDS011;55906;52.278;6.808;2022-09-04T05:15:34;5.13;;;3.77;;
68870;SDS011;55906;52.278;6.808;2022-09-04T05:18:08;4.53;;;3.70;;
68870;SDS011;55906;52.278;6.808;2022-09-04T05:20:43;6.00;;;4.22;;
68870;SDS011;55906;52.278;6.808;2022-09-04T05:23:19;5.53;;;4.30;;
68870;SDS011;55906;52.278;6.808;2022-09-04T05:25:56;4.95;;;4.40;;
68870;SDS011;55906;52.278;6.808;2022-09-04T05:28:30;5.43;;;4.10;;
68870;SDS011;55906;52.278;6.808;2022-09-04T05:31:08;4.70;;;4.13;;
68870;SDS011;55906;52.278;6.808;2022-09-04T05:33:43;6.03;;;4.40;;
68870;SDS011;55906;52.278;6.808;2022-09-04T05:36:23;5.30;;;4.22;;
68870;SDS011;55906;52.278;6.808;2022-09-04T05:39:02;5.47;;;4.18;;
68870;SDS011;55906;52.278;6.808;2022-09-04T05:41:37;4.53;;;3.83;;
68870;SDS011;55906;52.278;6.808;2022-09-04T05:44:14;4.63;;;3.70;;
68870;SDS011;55906;52.278;6.808;2022-09-04T05:46:59;4.85;;;3.60;;
68870;SDS011;55906;52.278;6.808;2022-09-04T05:49:37;5.18;;;3.90;;
68870;SDS011;55906;52.278;6.808;2022-09-04T05:52:24;4.93;;;4.13;;
68870;SDS011;55906;52.278;6.808;2022-09-04T05:58:09;4.85;;;4.22;;
68870;SDS011;55906;52.278;6.808;2022-09-04T06:01:00;5.72;;;3.90;;
68870;SDS011;55906;52.278;6.808;2022-09-04T06:06:31;6.82;;;4.03;;
68870;SDS011;55906;52.278;6.808;2022-09-04T06:12:03;5.72;;;4.30;;
68870;SDS011;55906;52.278;6.808;2022-09-04T06:14:50;5.72;;;4.70;;
68870;SDS011;55906;52.278;6.808;2022-09-04T06:17:34;6.20;;;4.40;;
68870;SDS011;55906;52.278;6.808;2022-09-04T06:20:32;5.97;;;4.35;;
68870;SDS011;55906;52.278;6.808;2022-09-04T06:23:24;6.53;;;4.27;;
68870;SDS011;55906;52.278;6.808;2022-09-04T06:26:06;6.35;;;4.68;;
68870;SDS011;55906;52.278;6.808;2022-09-04T06:34:35;5.57;;;4.70;;
68870;SDS011;55906;52.278;6.808;2022-09-04T06:37:14;6.30;;;4.70;;
68870;SDS011;55906;52.278;6.808;2022-09-04T06:39:53;5.80;;;4.97;;
68870;SDS011;55906;52.278;6.808;2022-09-04T06:42:41;5.93;;;4.60;;
68870;SDS011;55906;52.278;6.808;2022-09-04T06:45:18;5.35;;;4.13;;
68870;SDS011;55906;52.278;6.808;2022-09-04T06:47:59;8.35;;;5.75;;
68870;SDS011;55906;52.278;6.808;2022-09-04T06:50:35;8.83;;;5.30;;
68870;SDS011;55906;52.278;6.808;2022-09-04T06:53:16;5.85;;;4.00;;
68870;SDS011;55906;52.278;6.808;2022-09-04T06:55:48;7.18;;;4.47;;
68870;SDS011;55906;52.278;6.808;2022-09-04T06:58:36;6.05;;;4.57;;
68870;SDS011;55906;52.278;6.808;2022-09-04T07:01:22;6.05;;;3.92;;
68870;SDS011;55906;52.278;6.808;2022-09-04T07:04:03;6.97;;;4.77;;
68870;SDS011;55906;52.278;6.808;2022-09-04T07:06:46;6.75;;;4.50;;
68870;SDS011;55906;52.278;6.808;2022-09-04T07:09:20;5.50;;;4.63;;
68870;SDS011;55906;52.278;6.808;2022-09-04T07:11:56;5.95;;;4.25;;
68870;SDS011;55906;52.278;6.808;2022-09-04T07:17:40;5.97;;;4.43;;
68870;SDS011;55906;52.278;6.808;2022-09-04T07:20:19;6.18;;;4.50;;
68870;SDS011;55906;52.278;6.808;2022-09-04T07:23:12;6.90;;;4.65;;
68870;SDS011;55906;52.278;6.808;2022-09-04T07:25:49;6.78;;;4.53;;
68870;SDS011;55906;52.278;6.808;2022-09-04T07:28:31;7.90;;;5.70;;
68870;SDS011;55906;52.278;6.808;2022-09-04T07:31:07;8.77;;;5.23;;
68870;SDS011;55906;52.278;6.808;2022-09-04T07:33:38;6.38;;;4.93;;
68870;SDS011;55906;52.278;6.808;2022-09-04T07:36:16;6.00;;;4.68;;
68870;SDS011;55906;52.278;6.808;2022-09-04T07:38:47;6.90;;;4.43;;
68870;SDS011;55906;52.278;6.808;2022-09-04T07:41:26;6.30;;;5.15;;
68870;SDS011;55906;52.278;6.808;2022-09-04T07:44:02;5.60;;;4.50;;
68870;SDS011;55906;52.278;6.808;2022-09-04T07:46:34;5.57;;;4.40;;
68870;SDS011;55906;52.278;6.808;2022-09-04T07:49:09;5.90;;;4.70;;
68870;SDS011;55906;52.278;6.808;2022-09-04T07:51:43;7.00;;;4.68;;
68870;SDS011;55906;52.278;6.808;2022-09-04T08:00:10;6.43;;;4.22;;
68870;SDS011;55906;52.278;6.808;2022-09-04T08:05:38;6.32;;;4.68;;
68870;SDS011;55906;52.278;6.808;2022-09-04T08:08:25;8.07;;;4.95;;
68870;SDS011;55906;52.278;6.808;2022-09-04T08:14:15;8.43;;;4.90;;
68870;SDS011;55906;52.278;6.808;2022-09-04T08:17:21;7.07;;;5.03;;
68870;SDS011;55906;52.278;6.808;2022-09-04T08:20:22;7.78;;;5.03;;
68870;SDS011;55906;52.278;6.808;2022-09-04T08:23:05;5.97;;;4.07;;
68870;SDS011;55906;52.278;6.808;2022-09-04T08:25:49;8.65;;;5.38;;
68870;SDS011;55906;52.278;6.808;2022-09-04T08:28:31;8.70;;;5.07;;
68870;SDS011;55906;52.278;6.808;2022-09-04T08:31:11;5.82;;;4.30;;
68870;SDS011;55906;52.278;6.808;2022-09-04T08:37:10;7.47;;;3.50;;
68870;SDS011;55906;52.278;6.808;2022-09-04T08:39:46;8.02;;;4.13;;
68870;SDS011;55906;52.278;6.808;2022-09-04T08:42:30;7.70;;;3.53;;
68870;SDS011;55906;52.278;6.808;2022-09-04T08:45:33;7.35;;;3.70;;
68870;SDS011;55906;52.278;6.808;2022-09-04T08:51:49;6.93;;;3.80;;
68870;SDS011;55906;52.278;6.808;2022-09-04T08:54:52;6.32;;;3.45;;
68870;SDS011;55906;52.278;6.808;2022-09-04T09:01:02;4.72;;;2.70;;
68870;SDS011;55906;52.278;6.808;2022-09-04T09:03:50;5.10;;;2.83;;
68870;SDS011;55906;52.278;6.808;2022-09-04T09:16:20;6.55;;;2.97;;
68870;SDS011;55906;52.278;6.808;2022-09-04T09:19:01;4.30;;;2.30;;
68870;SDS011;55906;52.278;6.808;2022-09-04T09:21:41;5.50;;;2.78;;
68870;SDS011;55906;52.278;6.808;2022-09-04T09:24:18;5.10;;;2.60;;
68870;SDS011;55906;52.278;6.808;2022-09-04T09:27:12;6.63;;;2.63;;
68870;SDS011;55906;52.278;6.808;2022-09-04T09:30:01;4.10;;;2.20;;
68870;SDS011;55906;52.278;6.808;2022-09-04T09:35:55;4.88;;;2.63;;
68870;SDS011;55906;52.278;6.808;2022-09-04T09:41:55;6.50;;;2.10;;
68870;SDS011;55906;52.278;6.808;2022-09-04T09:44:46;5.18;;;2.25;;
68870;SDS011;55906;52.278;6.808;2022-09-04T09:47:42;4.30;;;2.33;;
68870;SDS011;55906;52.278;6.808;2022-09-04T09:53:32;10.90;;;2.63;;
68870;SDS011;55906;52.278;6.808;2022-09-04T09:56:24;5.70;;;1.97;;
68870;SDS011;55906;52.278;6.808;2022-09-04T10:08:49;5.57;;;2.08;;
68870;SDS011;55906;52.278;6.808;2022-09-04T10:15:00;5.03;;;1.90;;
68870;SDS011;55906;52.278;6.808;2022-09-04T10:17:49;4.53;;;2.20;;
68870;SDS011;55906;52.278;6.808;2022-09-04T10:20:48;4.20;;;2.00;;
68870;SDS011;55906;52.278;6.808;2022-09-04T10:23:41;7.07;;;2.10;;
68870;SDS011;55906;52.278;6.808;2022-09-04T10:26:41;5.30;;;1.77;;
68870;SDS011;55906;52.278;6.808;2022-09-04T10:29:36;6.32;;;2.20;;
68870;SDS011;55906;52.278;6.808;2022-09-04T10:32:25;4.60;;;1.77;;
68870;SDS011;55906;52.278;6.808;2022-09-04T10:35:07;4.15;;;1.90;;
68870;SDS011;55906;52.278;6.808;2022-09-04T10:37:50;6.95;;;2.15;;
68870;SDS011;55906;52.278;6.808;2022-09-04T10:40:30;7.70;;;2.43;;
68870;SDS011;55906;52.278;6.808;2022-09-04T10:43:19;8.32;;;2.00;;
68870;SDS011;55906;52.278;6.808;2022-09-04T10:45:57;5.43;;;1.83;;
68870;SDS011;55906;52.278;6.808;2022-09-04T10:51:57;3.72;;;1.70;;
68870;SDS011;55906;52.278;6.808;2022-09-04T10:55:02;4.17;;;1.80;;
68870;SDS011;55906;52.278;6.808;2022-09-04T11:04:01;5.35;;;1.90;;
68870;SDS011;55906;52.278;6.808;2022-09-04T11:09:40;3.83;;;1.80;;
68870;SDS011;55906;52.278;6.808;2022-09-04T11:12:26;6.80;;;2.38;;
68870;SDS011;55906;52.278;6.808;2022-09-04T11:15:23;6.35;;;1.90;;
68870;SDS011;55906;52.278;6.808;2022-09-04T11:22:53;7.63;;;2.35;;
68870;SDS011;55906;52.278;6.808;2022-09-04T11:28:58;4.10;;;2.10;;
68870;SDS011;55906;52.278;6.808;2022-09-04T11:31:52;5.57;;;1.88;;
68870;SDS011;55906;52.278;6.808;2022-09-04T11:46:46;5.40;;;2.13;;
68870;SDS011;55906;52.278;6.808;2022-09-04T11:52:33;4.57;;;1.80;;
68870;SDS011;55906;52.278;6.808;2022-09-04T12:01:12;4.70;;;2.13;;
68870;SDS011;55906;52.278;6.808;2022-09-04T12:03:58;4.25;;;1.92;;
68870;SDS011;55906;52.278;6.808;2022-09-04T12:06:50;4.85;;;2.20;;
68870;SDS011;55906;52.278;6.808;2022-09-04T12:09:50;10.60;;;2.60;;
68870;SDS011;55906;52.278;6.808;2022-09-04T12:12:52;5.95;;;2.15;;
68870;SDS011;55906;52.278;6.808;2022-09-04T12:21:49;4.10;;;2.10;;
68870;SDS011;55906;52.278;6.808;2022-09-04T12:24:54;4.57;;;2.10;;
68870;SDS011;55906;52.278;6.808;2022-09-04T12:30:44;3.90;;;2.10;;
68870;SDS011;55906;52.278;6.808;2022-09-04T12:33:27;4.68;;;2.20;;
68870;SDS011;55906;52.278;6.808;2022-09-04T12:39:12;4.63;;;2.20;;
68870;SDS011;55906;52.278;6.808;2022-09-04T12:41:53;3.65;;;1.75;;
68870;SDS011;55906;52.278;6.808;2022-09-04T12:44:31;4.38;;;1.85;;
68870;SDS011;55906;52.278;6.808;2022-09-04T12:47:10;4.00;;;1.85;;
68870;SDS011;55906;52.278;6.808;2022-09-04T12:49:51;4.18;;;1.88;;
68870;SDS011;55906;52.278;6.808;2022-09-04T12:52:33;3.77;;;1.67;;
68870;SDS011;55906;52.278;6.808;2022-09-04T12:55:30;3.58;;;1.80;;
68870;SDS011;55906;52.278;6.808;2022-09-04T12:58:06;5.45;;;1.90;;
68870;SDS011;55906;52.278;6.808;2022-09-04T13:00:46;4.38;;;1.95;;
68870;SDS011;55906;52.278;6.808;2022-09-04T13:03:24;3.40;;;1.90;;
68870;SDS011;55906;52.278;6.808;2022-09-04T13:06:05;6.27;;;2.40;;
68870;SDS011;55906;52.278;6.808;2022-09-04T13:08:43;6.03;;;2.47;;
68870;SDS011;55906;52.278;6.808;2022-09-04T13:11:28;4.18;;;2.45;;
68870;SDS011;55906;52.278;6.808;2022-09-04T13:14:08;4.32;;;2.50;;
68870;SDS011;55906;52.278;6.808;2022-09-04T13:16:49;6.03;;;2.90;;
68870;SDS011;55906;52.278;6.808;2022-09-04T13:19:28;4.30;;;2.60;;
68870;SDS011;55906;52.278;6.808;2022-09-04T13:22:07;4.43;;;2.67;;
68870;SDS011;55906;52.278;6.808;2022-09-04T13:24:46;4.43;;;2.80;;
68870;SDS011;55906;52.278;6.808;2022-09-04T13:27:36;6.85;;;3.08;;
68870;SDS011;55906;52.278;6.808;2022-09-04T13:30:12;3.88;;;2.58;;
68870;SDS011;55906;52.278;6.808;2022-09-04T13:35:49;4.68;;;2.70;;
68870;SDS011;55906;52.278;6.808;2022-09-04T13:41:25;3.95;;;2.50;;
68870;SDS011;55906;52.278;6.808;2022-09-04T13:47:14;4.10;;;2.30;;
68870;SDS011;55906;52.278;6.808;2022-09-04T13:49:47;3.88;;;2.33;;
68870;SDS011;55906;52.278;6.808;2022-09-04T13:52:20;4.82;;;2.50;;
68870;SDS011;55906;52.278;6.808;2022-09-04T13:54:53;4.18;;;2.90;;
68870;SDS011;55906;52.278;6.808;2022-09-04T13:57:25;4.32;;;2.72;;
68870;SDS011;55906;52.278;6.808;2022-09-04T13:59:56;4.60;;;2.90;;
68870;SDS011;55906;52.278;6.808;2022-09-04T14:02:27;5.32;;;3.20;;
68870;SDS011;55906;52.278;6.808;2022-09-04T14:04:56;6.50;;;2.90;;
68870;SDS011;55906;52.278;6.808;2022-09-04T14:07:33;4.60;;;3.00;;
68870;SDS011;55906;52.278;6.808;2022-09-04T14:10:04;7.82;;;2.97;;
68870;SDS011;55906;52.278;6.808;2022-09-04T14:12:41;7.57;;;2.90;;
68870;SDS011;55906;52.278;6.808;2022-09-04T14:21:27;5.13;;;2.63;;
68870;SDS011;55906;52.278;6.808;2022-09-04T14:24:05;6.28;;;3.20;;
68870;SDS011;55906;52.278;6.808;2022-09-04T14:26:40;7.67;;;2.90;;
68870;SDS011;55906;52.278;6.808;2022-09-04T14:29:18;4.47;;;2.90;;
68870;SDS011;55906;52.278;6.808;2022-09-04T14:31:53;4.68;;;2.47;;
68870;SDS011;55906;52.278;6.808;2022-09-04T14:34:36;3.90;;;2.65;;
68870;SDS011;55906;52.278;6.808;2022-09-04T14:37:29;4.47;;;2.78;;
68870;SDS011;55906;52.278;6.808;2022-09-04T14:40:14;6.53;;;3.20;;
68870;SDS011;55906;52.278;6.808;2022-09-04T14:42:45;4.60;;;2.75;;
68870;SDS011;55906;52.278;6.808;2022-09-04T14:48:19;6.63;;;3.00;;
68870;SDS011;55906;52.278;6.808;2022-09-04T14:50:48;6.13;;;3.15;;
68870;SDS011;55906;52.278;6.808;2022-09-04T14:53:19;4.30;;;2.77;;
68870;SDS011;55906;52.278;6.808;2022-09-04T14:58:51;5.05;;;3.65;;
68870;SDS011;55906;52.278;6.808;2022-09-04T15:01:21;4.50;;;3.20;;
68870;SDS011;55906;52.278;6.808;2022-09-04T15:03:51;5.70;;;3.80;;
68870;SDS011;55906;52.278;6.808;2022-09-04T15:06:25;4.93;;;3.70;;
68870;SDS011;55906;52.278;6.808;2022-09-04T15:08:56;5.88;;;3.80;;
68870;SDS011;55906;52.278;6.808;2022-09-04T15:11:29;5.10;;;3.70;;
68870;SDS011;55906;52.278;6.808;2022-09-04T15:13:59;6.20;;;3.88;;
68870;SDS011;55906;52.278;6.808;2022-09-04T15:16:39;5.90;;;3.90;;
68870;SDS011;55906;52.278;6.808;2022-09-04T15:19:22;5.10;;;4.30;;
68870;SDS011;55906;52.278;6.808;2022-09-04T15:21:56;5.88;;;3.95;;
68870;SDS011;55906;52.278;6.808;2022-09-04T15:24:31;6.63;;;3.88;;
68870;SDS011;55906;52.278;6.808;2022-09-04T15:27:07;5.78;;;4.15;;
68870;SDS011;55906;52.278;6.808;2022-09-04T15:29:44;8.48;;;4.00;;
68870;SDS011;55906;52.278;6.808;2022-09-04T15:32:24;6.97;;;4.20;;
68870;SDS011;55906;52.278;6.808;2022-09-04T15:35:04;6.55;;;4.18;;
68870;SDS011;55906;52.278;6.808;2022-09-04T15:37:32;5.78;;;3.95;;
68870;SDS011;55906;52.278;6.808;2022-09-04T15:40:02;6.35;;;4.55;;
68870;SDS011;55906;52.278;6.808;2022-09-04T15:42:40;6.18;;;4.40;;
68870;SDS011;55906;52.278;6.808;2022-09-04T15:45:15;6.37;;;4.20;;
68870;SDS011;55906;52.278;6.808;2022-09-04T15:47:54;5.15;;;3.83;;
68870;SDS011;55906;52.278;6.808;2022-09-04T15:50:31;5.53;;;4.38;;
68870;SDS011;55906;52.278;6.808;2022-09-04T15:53:09;6.32;;;4.15;;
68870;SDS011;55906;52.278;6.808;2022-09-04T15:55:45;5.68;;;3.90;;
68870;SDS011;55906;52.278;6.808;2022-09-04T15:58:17;7.73;;;4.30;;
68870;SDS011;55906;52.278;6.808;2022-09-04T16:01:04;6.25;;;4.03;;
68870;SDS011;55906;52.278;6.808;2022-09-04T16:03:39;5.15;;;3.80;;
68870;SDS011;55906;52.278;6.808;2022-09-04T16:06:17;6.25;;;3.97;;
68870;SDS011;55906;52.278;6.808;2022-09-04T16:08:48;5.97;;;4.07;;
68870;SDS011;55906;52.278;6.808;2022-09-04T16:11:21;5.70;;;4.10;;
68870;SDS011;55906;52.278;6.808;2022-09-04T16:13:53;5.60;;;3.85;;
68870;SDS011;55906;52.278;6.808;2022-09-04T16:16:24;6.35;;;4.05;;
68870;SDS011;55906;52.278;6.808;2022-09-04T16:21:47;6.65;;;3.70;;
68870;SDS011;55906;52.278;6.808;2022-09-04T16:24:18;5.03;;;4.00;;
68870;SDS011;55906;52.278;6.808;2022-09-04T16:26:53;7.57;;;3.90;;
68870;SDS011;55906;52.278;6.808;2022-09-04T16:29:25;5.85;;;4.18;;
68870;SDS011;55906;52.278;6.808;2022-09-04T16:32:00;5.15;;;3.97;;
68870;SDS011;55906;52.278;6.808;2022-09-04T16:34:31;6.70;;;3.97;;
68870;SDS011;55906;52.278;6.808;2022-09-04T16:37:05;6.47;;;3.77;;
68870;SDS011;55906;52.278;6.808;2022-09-04T16:39:45;5.72;;;3.80;;
68870;SDS011;55906;52.278;6.808;2022-09-04T16:42:20;6.53;;;3.72;;
68870;SDS011;55906;52.278;6.808;2022-09-04T16:44:52;4.60;;;3.55;;
68870;SDS011;55906;52.278;6.808;2022-09-04T16:47:30;5.00;;;3.88;;
68870;SDS011;55906;52.278;6.808;2022-09-04T16:50:06;6.03;;;4.03;;
68870;SDS011;55906;52.278;6.808;2022-09-04T16:52:44;6.20;;;4.10;;
68870;SDS011;55906;52.278;6.808;2022-09-04T16:55:22;5.60;;;4.20;;
68870;SDS011;55906;52.278;6.808;2022-09-04T16:58:04;6.38;;;4.28;;
68870;SDS011;55906;52.278;6.808;2022-09-04T17:00:59;6.70;;;4.63;;
68870;SDS011;55906;52.278;6.808;2022-09-04T17:06:24;6.55;;;4.43;;
68870;SDS011;55906;52.278;6.808;2022-09-04T17:08:57;6.57;;;4.28;;
68870;SDS011;55906;52.278;6.808;2022-09-04T17:11:35;5.35;;;4.00;;
68870;SDS011;55906;52.278;6.808;2022-09-04T17:14:09;7.15;;;4.40;;
68870;SDS011;55906;52.278;6.808;2022-09-04T17:16:49;6.90;;;4.70;;
68870;SDS011;55906;52.278;6.808;2022-09-04T17:19:21;7.47;;;4.95;;
68870;SDS011;55906;52.278;6.808;2022-09-04T17:21:56;7.43;;;4.80;;
68870;SDS011;55906;52.278;6.808;2022-09-04T17:24:52;5.97;;;4.68;;
68870;SDS011;55906;52.278;6.808;2022-09-04T17:27:25;5.50;;;4.55;;
68870;SDS011;55906;52.278;6.808;2022-09-04T17:30:01;6.00;;;4.17;;
68870;SDS011;55906;52.278;6.808;2022-09-04T17:32:35;5.82;;;4.50;;
68870;SDS011;55906;52.278;6.808;2022-09-04T17:35:12;5.88;;;4.00;;
68870;SDS011;55906;52.278;6.808;2022-09-04T17:37:46;5.90;;;3.95;;
68870;SDS011;55906;52.278;6.808;2022-09-04T17:40:18;5.15;;;3.70;;
68870;SDS011;55906;52.278;6.808;2022-09-04T17:42:53;5.27;;;3.83;;
68870;SDS011;55906;52.278;6.808;2022-09-04T17:45:35;7.18;;;4.00;;
68870;SDS011;55906;52.278;6.808;2022-09-04T17:48:17;4.88;;;3.67;;
68870;SDS011;55906;52.278;6.808;2022-09-04T17:50:48;5.07;;;3.72;;
68870;SDS011;55906;52.278;6.808;2022-09-04T17:53:22;6.40;;;3.90;;
68870;SDS011;55906;52.278;6.808;2022-09-04T17:55:51;6.30;;;3.83;;
68870;SDS011;55906;52.278;6.808;2022-09-04T17:58:24;5.07;;;4.03;;
68870;SDS011;55906;52.278;6.808;2022-09-04T18:00:57;4.53;;;3.50;;
68870;SDS011;55906;52.278;6.808;2022-09-04T18:03:32;5.18;;;3.90;;
68870;SDS011;55906;52.278;6.808;2022-09-04T18:06:07;5.43;;;4.05;;
68870;SDS011;55906;52.278;6.808;2022-09-04T18:08:39;4.60;;;3.43;;
68870;SDS011;55906;52.278;6.808;2022-09-04T18:11:10;4.82;;;3.63;;
68870;SDS011;55906;52.278;6.808;2022-09-04T18:13:43;5.72;;;4.20;;
68870;SDS011;55906;52.278;6.808;2022-09-04T18:16:33;5.30;;;3.70;;
68870;SDS011;55906;52.278;6.808;2022-09-04T18:19:15;5.20;;;3.95;;
68870;SDS011;55906;52.278;6.808;2022-09-04T18:21:49;4.90;;;3.60;;
68870;SDS011;55906;52.278;6.808;2022-09-04T18:24:20;7.43;;;3.88;;
68870;SDS011;55906;52.278;6.808;2022-09-04T18:26:50;5.20;;;3.53;;
68870;SDS011;55906;52.278;6.808;2022-09-04T18:29:28;5.88;;;3.85;;
68870;SDS011;55906;52.278;6.808;2022-09-04T18:32:04;6.28;;;3.97;;
68870;SDS011;55906;52.278;6.808;2022-09-04T18:34:36;6.85;;;4.00;;
68870;SDS011;55906;52.278;6.808;2022-09-04T18:37:09;5.57;;;3.92;;
68870;SDS011;55906;52.278;6.808;2022-09-04T18:39:46;6.80;;;4.05;;
68870;SDS011;55906;52.278;6.808;2022-09-04T18:42:22;5.63;;;4.00;;
68870;SDS011;55906;52.278;6.808;2022-09-04T18:44:56;5.38;;;4.13;;
68870;SDS011;55906;52.278;6.808;2022-09-04T18:47:36;6.68;;;4.53;;
68870;SDS011;55906;52.278;6.808;2022-09-04T18:50:05;6.53;;;4.82;;
68870;SDS011;55906;52.278;6.808;2022-09-04T18:52:47;5.40;;;4.28;;
68870;SDS011;55906;52.278;6.808;2022-09-04T18:55:22;5.68;;;4.35;;
68870;SDS011;55906;52.278;6.808;2022-09-04T18:57:54;5.80;;;4.57;;